createdAt,value
2022-12-23T00:01:25.109Z,96839.56
2022-12-23T00:03:57.836Z,96834.13
2022-12-23T00:06:25.531Z,96822.03
2022-12-23T00:08:52.663Z,96826.00
2022-12-23T00:11:20.462Z,96819.00
2022-12-23T00:13:47.576Z,96814.44
2022-12-23T00:16:15.403Z,96810.22
2022-12-23T00:18:43.402Z,96803.00
2022-12-23T00:21:14.291Z,96795.25
2022-12-23T00:23:43.677Z,96789.34
2022-12-23T00:26:14.725Z,96774.66
2022-12-23T00:28:42.046Z,96785.03
2022-12-23T00:31:10.230Z,96776.47
2022-12-23T00:33:39.516Z,96775.16
2022-12-23T00:36:13.612Z,96766.59
2022-12-23T00:38:40.613Z,96761.78
2022-12-23T00:41:11.209Z,96762.53
2022-12-23T00:43:38.336Z,96762.84
2022-12-23T00:46:05.707Z,96762.56
2022-12-23T00:48:32.833Z,96764.69
2022-12-23T00:51:00.033Z,96756.69
2022-12-23T00:53:28.579Z,96766.06
2022-12-23T00:55:55.859Z,96760.41
2022-12-23T00:58:23.001Z,96758.53
2022-12-23T01:00:50.195Z,96755.00
2022-12-23T01:03:17.830Z,96744.53
2022-12-23T01:05:45.011Z,96755.97
2022-12-23T01:08:12.899Z,96757.84
2022-12-23T01:10:41.437Z,96755.22
2022-12-23T01:13:08.617Z,96755.22
2022-12-23T01:15:35.707Z,96751.19
2022-12-23T01:18:02.821Z,96756.06
2022-12-23T01:20:30.014Z,96757.38
2022-12-23T01:22:57.150Z,96749.63
2022-12-23T01:25:24.277Z,96748.59
2022-12-23T01:27:52.752Z,96743.22
2022-12-23T01:30:19.937Z,96729.09
2022-12-23T01:32:47.050Z,96745.66
2022-12-23T01:35:14.434Z,96732.88
2022-12-23T01:37:41.621Z,96737.09
2022-12-23T01:40:09.628Z,96744.38
2022-12-23T01:42:36.742Z,96732.53
2022-12-23T01:45:14.075Z,96737.34
2022-12-23T01:47:45.836Z,96739.25
2022-12-23T01:50:16.953Z,96737.63
2022-12-23T01:52:46.757Z,96741.06
2022-12-23T01:55:16.768Z,96740.78
2022-12-23T01:57:44.822Z,96717.19
2022-12-23T02:03:20.669Z,96740.69
2022-12-23T02:05:48.791Z,96742.38
2022-12-23T02:08:16.631Z,96730.13
2022-12-23T02:11:04.214Z,96733.91
2022-12-23T02:13:39.962Z,96736.56
2022-12-23T02:16:13.854Z,96744.81
2022-12-23T02:19:13.317Z,96740.59
2022-12-23T02:21:58.478Z,96755.53
2022-12-23T02:24:54.277Z,96753.16
2022-12-23T02:27:28.648Z,96747.84
2022-12-23T02:30:25.487Z,96750.56
2022-12-23T02:33:18.525Z,96737.16
2022-12-23T02:35:55.971Z,96737.66
2022-12-23T02:38:28.821Z,96755.66
2022-12-23T02:41:04.879Z,96757.03
2022-12-23T02:43:41.971Z,96751.16
2022-12-23T02:46:13.718Z,96751.06
2022-12-23T02:48:47.666Z,96745.41
2022-12-23T02:51:15.774Z,96739.16
2022-12-23T02:53:47.636Z,96730.13
2022-12-23T02:56:17.810Z,96748.31
2022-12-23T02:58:59.896Z,96741.91
2022-12-23T03:01:31.692Z,96740.59
2022-12-23T03:04:00.466Z,96737.09
2022-12-23T03:06:32.295Z,96731.97
2022-12-23T03:09:00.707Z,96731.38
2022-12-23T03:11:38.157Z,96727.41
2022-12-23T03:14:18.848Z,96732.03
2022-12-23T03:16:53.478Z,96731.22
2022-12-23T03:19:30.521Z,96717.34
2022-12-23T03:22:08.296Z,96727.75
2022-12-23T03:24:41.127Z,96726.41
2022-12-23T03:27:11.977Z,96725.09
2022-12-23T03:29:45.744Z,96717.94
2022-12-23T03:32:15.783Z,96723.50
2022-12-23T03:34:48.108Z,96724.00
2022-12-23T03:37:19.877Z,96725.34
2022-12-23T03:39:54.035Z,96728.81
2022-12-23T03:42:26.538Z,96727.41
2022-12-23T03:45:36.331Z,96726.84
2022-12-23T03:47:46.743Z,96731.69
2022-12-23T03:50:19.428Z,96731.19
2022-12-23T03:52:52.837Z,96714.38
2022-12-23T03:55:25.286Z,96726.94
2022-12-23T03:57:58.186Z,96727.44
2022-12-23T04:00:29.156Z,96723.97
2022-12-23T04:03:04.171Z,96733.66
2022-12-23T04:05:36.519Z,96729.63
2022-12-23T04:08:10.099Z,96733.63
2022-12-23T04:10:37.431Z,96736.00
2022-12-23T04:13:05.470Z,96723.97
2022-12-23T04:15:32.832Z,96720.78
2022-12-23T04:17:59.956Z,96739.56
2022-12-23T04:20:27.071Z,96736.88
2022-12-23T04:22:55.587Z,96734.53
2022-12-23T04:25:22.693Z,96737.78
2022-12-23T04:27:49.807Z,96729.22
2022-12-23T04:30:17.011Z,96733.72
2022-12-23T04:32:44.687Z,96734.47
2022-12-23T04:35:12.415Z,96735.72
2022-12-23T04:37:39.556Z,96736.25
2022-12-23T04:40:09.114Z,96735.97
2022-12-23T04:42:36.317Z,96734.91
2022-12-23T04:45:03.684Z,96739.78
2022-12-23T04:47:30.781Z,96744.59
2022-12-23T04:49:58.295Z,96743.78
2022-12-23T04:52:25.364Z,96744.66
2022-12-23T04:54:52.502Z,96750.81
2022-12-23T04:57:21.086Z,96745.72
2022-12-23T04:59:48.177Z,96755.09
2022-12-23T05:02:15.467Z,96734.56
2022-12-23T05:04:42.751Z,96751.31
2022-12-23T05:07:09.879Z,96717.69
2022-12-23T05:09:37.054Z,96748.97
2022-12-23T05:12:04.450Z,96753.47
2022-12-23T05:14:32.948Z,96740.69
2022-12-23T05:17:06.954Z,96741.75
2022-12-23T05:19:34.648Z,96741.56
2022-12-23T05:22:01.762Z,96743.66
2022-12-23T05:24:28.867Z,96751.66
2022-12-23T05:27:00.179Z,96755.34
2022-12-23T05:29:27.792Z,96758.75
2022-12-23T05:31:56.353Z,96746.97
2022-12-23T05:34:23.602Z,96758.28
2022-12-23T05:36:50.705Z,96762.28
2022-12-23T05:39:17.819Z,96761.50
2022-12-23T05:41:44.903Z,96765.53
2022-12-23T05:44:12.031Z,96754.06
2022-12-23T05:46:39.191Z,96767.41
2022-12-23T05:49:07.690Z,96765.00
2022-12-23T05:51:34.826Z,96769.19
2022-12-23T05:54:01.913Z,96771.56
2022-12-23T05:56:29.067Z,96776.69
2022-12-23T05:58:56.174Z,96778.19
2022-12-23T06:01:23.275Z,96766.47
2022-12-23T06:03:50.500Z,96780.28
2022-12-23T06:06:18.994Z,96778.88
2022-12-23T06:08:46.105Z,96772.66
2022-12-23T06:11:13.256Z,96773.69
2022-12-23T06:13:40.561Z,96775.69
2022-12-23T06:16:07.852Z,96778.28
2022-12-23T06:18:35.090Z,96778.28
2022-12-23T06:21:02.226Z,96785.81
2022-12-23T06:23:30.721Z,96788.22
2022-12-23T06:26:01.731Z,96786.19
2022-12-23T06:28:29.298Z,96789.34
2022-12-23T06:30:57.207Z,96792.03
2022-12-23T06:33:24.940Z,96798.41
2022-12-23T06:35:53.267Z,96798.97
2022-12-23T06:38:20.443Z,96799.50
2022-12-23T06:40:48.891Z,96802.50
2022-12-23T06:43:16.040Z,96808.44
2022-12-23T06:45:46.352Z,96805.22
2022-12-23T06:48:13.797Z,96812.63
2022-12-23T06:50:41.021Z,96806.88
2022-12-23T06:53:08.770Z,96816.53
2022-12-23T06:55:35.905Z,96815.91
2022-12-23T06:58:04.635Z,96815.63
2022-12-23T07:00:31.766Z,96792.44
2022-12-23T07:02:58.968Z,96822.81
2022-12-23T07:05:28.517Z,96814.41
2022-12-23T07:07:58.301Z,96813.66
2022-12-23T07:10:25.464Z,96828.75
2022-12-23T07:12:52.589Z,96827.06
2022-12-23T07:15:21.051Z,96832.16
2022-12-23T07:17:48.157Z,96839.50
2022-12-23T07:20:15.380Z,96844.66
2022-12-23T07:22:42.501Z,96846.47
2022-12-23T07:25:10.096Z,96854.00
2022-12-23T07:27:37.238Z,96866.16
2022-12-23T07:30:05.860Z,96868.84
2022-12-23T07:32:34.369Z,96863.06
2022-12-23T07:35:01.483Z,96858.91
2022-12-23T07:37:28.574Z,96867.53
2022-12-23T07:39:55.761Z,96875.09
2022-12-23T07:42:44.095Z,96882.13
2022-12-23T07:45:10.945Z,96887.09
2022-12-23T07:47:39.437Z,96896.06
2022-12-23T07:50:07.825Z,96906.56
2022-12-23T07:52:34.926Z,96902.59
2022-12-23T07:55:02.051Z,96910.09
2022-12-23T07:57:29.166Z,96909.53
2022-12-23T07:59:56.265Z,96902.31
2022-12-23T08:02:23.531Z,96909.78
2022-12-23T08:04:52.155Z,96908.19
2022-12-23T08:07:19.294Z,96895.66
2022-12-23T08:09:46.392Z,96907.63
2022-12-23T08:12:13.480Z,96906.00
2022-12-23T08:14:40.614Z,96920.75
2022-12-23T08:17:08.047Z,96923.16
2022-12-23T08:19:35.209Z,96917.03
2022-12-23T08:22:03.683Z,96915.69
2022-12-23T08:24:30.832Z,96915.88
2022-12-23T08:26:57.915Z,96916.69
2022-12-23T08:29:25.237Z,96900.84
2022-12-23T08:31:52.350Z,96904.66
2022-12-23T08:34:19.455Z,96906.53
2022-12-23T08:36:46.556Z,96903.72
2022-12-23T08:39:15.670Z,96871.13
2022-12-23T08:41:45.537Z,96908.63
2022-12-23T08:44:13.441Z,96911.78
2022-12-23T08:46:41.389Z,96905.78
2022-12-23T08:49:09.341Z,96902.38
2022-12-23T08:51:37.568Z,96907.72
2022-12-23T08:54:06.101Z,96910.63
2022-12-23T08:56:36.180Z,96926.41
2022-12-23T08:59:03.992Z,96918.31
2022-12-23T09:01:33.452Z,96910.50
2022-12-23T09:04:02.762Z,96930.38
2022-12-23T09:06:34.063Z,96934.69
2022-12-23T09:09:01.183Z,96938.75
2022-12-23T09:11:29.338Z,96944.09
2022-12-23T09:13:59.368Z,96940.13
2022-12-23T09:16:26.698Z,96953.31
2022-12-23T09:18:54.034Z,96969.91
2022-12-23T09:21:22.950Z,96968.31
2022-12-23T09:23:50.342Z,96965.06
2022-12-23T09:26:19.900Z,96957.59
2022-12-23T09:28:47.351Z,96961.63
2022-12-23T09:31:16.263Z,96967.53
2022-12-23T09:33:46.806Z,96961.88
2022-12-23T09:36:14.078Z,96962.91
2022-12-23T09:38:41.181Z,96955.91
2022-12-23T09:41:17.970Z,96956.50
2022-12-23T09:43:51.982Z,96956.16
2022-12-23T09:46:23.174Z,96949.56
2022-12-23T09:49:00.613Z,96952.78
2022-12-23T09:51:29.172Z,96951.41
2022-12-23T09:54:00.586Z,96951.66
2022-12-23T09:56:37.745Z,96939.34
2022-12-23T09:59:14.490Z,96960.50
2022-12-23T10:01:50.687Z,96957.81
2022-12-23T10:04:35.750Z,96951.91
2022-12-23T10:07:23.805Z,96954.84
2022-12-23T10:09:53.905Z,96954.06
2022-12-23T10:12:34.339Z,96968.81
2022-12-23T10:15:16.751Z,96960.75
2022-12-23T10:17:46.422Z,96963.44
2022-12-23T10:20:19.244Z,96953.75
2022-12-23T10:22:46.858Z,96945.44
2022-12-23T10:25:20.292Z,96954.28
2022-12-23T10:27:47.556Z,96949.50
2022-12-23T10:30:42.514Z,96942.84
2022-12-23T10:33:13.902Z,96932.38
2022-12-23T10:35:53.543Z,96938.31
2022-12-23T10:38:46.373Z,96931.06
2022-12-23T10:41:24.045Z,96933.75
2022-12-23T10:44:27.015Z,96933.47
2022-12-23T10:47:01.626Z,96930.78
2022-12-23T10:49:39.175Z,96925.16
2022-12-23T10:52:12.704Z,96919.81
2022-12-23T10:54:42.180Z,96924.66
2022-12-23T10:57:09.696Z,96924.66
2022-12-23T10:59:37.112Z,96921.44
2022-12-23T11:02:24.382Z,96932.44
2022-12-23T11:04:52.917Z,96923.34
2022-12-23T11:07:44.046Z,96914.22
2022-12-23T11:10:16.804Z,96920.38
2022-12-23T11:12:47.216Z,96916.38
2022-12-23T11:15:27.153Z,96917.16
2022-12-23T11:18:03.708Z,96910.72
2022-12-23T11:20:33.487Z,96906.44
2022-12-23T11:23:02.963Z,96913.16
2022-12-23T11:25:36.973Z,96920.38
2022-12-23T11:28:08.129Z,96913.16
2022-12-23T11:30:38.832Z,96911.25
2022-12-23T11:33:06.246Z,96909.88
2022-12-23T11:35:36.267Z,96909.59
2022-12-23T11:38:04.274Z,96912.81
2022-12-23T11:40:35.651Z,96907.47
2022-12-23T11:43:05.962Z,96911.22
2022-12-23T11:45:36.282Z,96908.81
2022-12-23T11:48:05.673Z,96902.66
2022-12-23T11:50:36.385Z,96894.38
2022-12-23T11:53:11.504Z,96901.06
2022-12-23T11:55:46.737Z,96889.81
2022-12-23T11:58:21.727Z,96890.31
2022-12-23T12:00:57.325Z,96887.41
2022-12-23T12:03:30.261Z,96890.06
2022-12-23T12:06:01.911Z,96898.94
2022-12-23T12:08:37.391Z,96894.66
2022-12-23T12:11:08.002Z,96840.66
2022-12-23T12:13:39.804Z,96879.09
2022-12-23T12:16:31.175Z,96868.09
2022-12-23T12:19:04.210Z,96870.00
2022-12-23T12:21:37.280Z,96865.69
2022-12-23T12:24:18.829Z,96871.31
2022-12-23T12:26:50.410Z,96872.59
2022-12-23T12:29:25.287Z,96872.81
2022-12-23T12:31:54.330Z,96865.06
2022-12-23T12:34:34.014Z,96868.59
2022-12-23T12:37:12.409Z,96864.31
2022-12-23T12:39:43.178Z,96847.22
2022-12-23T12:42:15.558Z,96859.53
2022-12-23T12:44:53.745Z,96837.53
2022-12-23T12:47:52.787Z,96845.59
2022-12-23T12:50:18.122Z,96825.81
2022-12-23T12:52:46.566Z,96833.25
2022-12-23T12:55:21.324Z,96843.19
2022-12-23T12:57:48.521Z,96838.88
2022-12-23T13:00:18.323Z,96826.00
2022-12-23T13:03:08.297Z,96824.16
2022-12-23T13:05:55.596Z,96823.91
2022-12-23T13:08:40.516Z,96826.00
2022-12-23T13:11:14.045Z,96818.25
2022-12-23T13:13:49.526Z,96824.91
2022-12-23T13:16:27.596Z,96814.41
2022-12-23T13:19:00.057Z,96808.50
2022-12-23T13:21:32.877Z,96820.53
2022-12-23T13:24:11.552Z,96808.75
2022-12-23T13:26:51.972Z,96811.03
2022-12-23T13:29:42.280Z,96794.19
2022-12-23T13:32:21.687Z,96777.56
2022-12-23T13:34:55.887Z,96794.41
2022-12-23T13:37:32.395Z,96785.84
2022-12-23T13:40:09.939Z,96788.53
2022-12-23T13:42:42.213Z,96784.75
2022-12-23T13:45:14.361Z,96782.59
2022-12-23T13:47:52.788Z,96774.81
2022-12-23T13:50:26.231Z,96784.19
2022-12-23T13:53:06.929Z,96775.91
2022-12-23T13:55:51.646Z,96770.81
2022-12-23T13:58:20.990Z,96769.00
2022-12-23T14:00:57.601Z,96761.78
2022-12-23T14:03:32.293Z,96759.44
2022-12-23T14:05:59.671Z,96752.69
2022-12-23T14:08:40.646Z,96758.84
2022-12-23T14:11:18.515Z,96752.16
2022-12-23T14:13:53.080Z,96741.88
2022-12-23T14:16:32.258Z,96750.16
2022-12-23T14:19:20.174Z,96752.56
2022-12-23T14:21:56.787Z,96752.56
2022-12-23T14:25:09.674Z,96744.53
2022-12-23T14:27:51.047Z,96748.56
2022-12-23T14:30:25.347Z,96733.31
2022-12-23T14:32:53.713Z,96738.47
2022-12-23T14:35:47.710Z,96736.81
2022-12-23T14:38:34.430Z,96727.66
2022-12-23T14:41:34.201Z,96725.25
2022-12-23T14:44:02.779Z,96731.13
2022-12-23T14:46:54.687Z,96725.22
2022-12-23T14:49:39.627Z,96723.06
2022-12-23T14:52:52.920Z,96712.03
2022-12-23T14:55:42.368Z,96714.47
2022-12-23T14:58:32.474Z,96707.47
2022-12-23T15:01:04.780Z,96706.34
2022-12-23T15:03:35.024Z,96704.94
2022-12-23T15:06:06.637Z,96705.16
2022-12-23T15:08:37.394Z,96703.53
2022-12-23T15:11:07.412Z,96694.66
2022-12-23T15:13:35.133Z,96692.16
2022-12-23T15:16:03.622Z,96691.97
2022-12-23T15:18:30.823Z,96691.44
2022-12-23T15:20:59.954Z,96701.66
2022-12-23T15:23:27.105Z,96693.31
2022-12-23T15:25:56.947Z,96686.09
2022-12-23T15:28:34.687Z,96689.84
2022-12-23T15:31:03.599Z,96680.72
2022-12-23T15:34:02.078Z,96689.84
2022-12-23T15:36:28.940Z,96676.78
2022-12-23T15:38:56.930Z,96684.47
2022-12-23T15:41:24.044Z,96683.44
2022-12-23T15:43:51.652Z,96685.91
2022-12-23T15:46:29.315Z,96675.16
2022-12-23T15:48:57.541Z,96674.13
2022-12-23T15:51:58.193Z,96683.50
2022-12-23T15:54:24.223Z,96670.91
2022-12-23T15:56:53.647Z,96663.91
2022-12-23T15:59:24.260Z,96663.28
2022-12-23T16:01:53.306Z,96670.25
2022-12-23T16:04:25.839Z,96667.00
2022-12-23T16:06:53.890Z,96667.81
2022-12-23T16:09:31.805Z,96665.41
2022-12-23T16:12:01.720Z,96666.72
2022-12-23T16:14:35.205Z,96644.91
2022-12-23T16:17:14.436Z,96643.06
2022-12-23T16:19:44.116Z,96634.75
2022-12-23T16:22:27.272Z,96643.03
2022-12-23T16:25:01.957Z,96636.34
2022-12-23T16:27:36.199Z,96633.94
2022-12-23T16:30:10.983Z,96631.59
2022-12-23T16:32:55.879Z,96623.84
2022-12-23T16:35:37.916Z,96620.34
2022-12-23T16:38:16.915Z,96619.78
2022-12-23T16:40:45.509Z,96604.44
2022-12-23T16:43:12.931Z,96612.47
2022-12-23T16:45:40.930Z,96607.34
2022-12-23T16:48:16.951Z,96609.72
2022-12-23T16:50:45.258Z,96596.00
2022-12-23T16:53:12.926Z,96607.53
2022-12-23T16:55:44.393Z,96594.13
2022-12-23T16:58:15.464Z,96596.00
2022-12-23T17:00:42.845Z,96591.75
2022-12-23T17:03:16.438Z,96593.25
2022-12-23T17:05:43.735Z,96590.94
2022-12-23T17:08:11.007Z,96603.84
2022-12-23T17:10:39.493Z,96579.25
2022-12-23T17:13:06.789Z,96599.78
2022-12-23T17:15:33.888Z,96592.31
2022-12-23T17:18:00.992Z,96592.25
2022-12-23T17:20:30.762Z,96591.28
2022-12-23T17:22:59.896Z,96591.66
2022-12-23T17:25:26.998Z,96591.94
2022-12-23T17:27:54.273Z,96593.97
2022-12-23T17:30:23.172Z,96588.31
2022-12-23T17:32:55.245Z,96581.06
2022-12-23T17:35:22.882Z,96581.06
2022-12-23T17:37:52.139Z,96577.72
2022-12-23T17:40:19.797Z,96583.09
2022-12-23T17:42:47.331Z,96583.59
2022-12-23T17:45:27.061Z,96580.63
2022-12-23T17:47:54.390Z,96588.75
2022-12-23T17:50:22.026Z,96588.69
2022-12-23T17:52:50.991Z,96578.69
2022-12-23T17:55:21.481Z,96578.69
2022-12-23T17:57:48.807Z,96581.09
2022-12-23T18:00:25.428Z,96584.00
2022-12-23T18:02:58.831Z,96591.22
2022-12-23T18:05:28.066Z,96585.28
2022-12-23T18:08:00.153Z,96572.53
2022-12-23T18:10:29.657Z,96587.47
2022-12-23T18:12:59.630Z,96568.81
2022-12-23T18:15:32.707Z,96582.16
2022-12-23T18:18:00.003Z,96574.47
2022-12-23T18:20:27.365Z,96579.06
2022-12-23T18:22:56.936Z,96570.19
2022-12-23T18:25:25.952Z,96573.59
2022-12-23T18:27:54.036Z,96574.34
2022-12-23T18:30:21.882Z,96571.59
2022-12-23T18:32:49.145Z,96576.66
2022-12-23T18:35:24.071Z,96574.19
2022-12-23T18:37:51.556Z,96575.56
2022-12-23T18:40:20.455Z,96573.53
2022-12-23T18:42:47.592Z,96587.75
2022-12-23T18:45:26.345Z,96579.19
2022-12-23T18:47:53.712Z,96581.38
2022-12-23T18:50:21.057Z,96582.44
2022-12-23T18:52:48.501Z,96581.44
2022-12-23T18:55:15.669Z,96585.50
2022-12-23T18:57:44.269Z,96577.94
2022-12-23T19:00:14.510Z,96588.41
2022-12-23T19:02:42.544Z,96580.50
2022-12-23T19:05:15.207Z,96578.09
2022-12-23T19:07:42.316Z,96577.31
2022-12-23T19:10:10.483Z,96574.91
2022-12-23T19:12:37.572Z,96581.06
2022-12-23T19:15:07.377Z,96581.84
2022-12-23T19:17:34.501Z,96584.25
2022-12-23T19:20:01.647Z,96577.72
2022-12-23T19:22:28.788Z,96581.94
2022-12-23T19:25:05.310Z,96587.91
2022-12-23T19:27:33.923Z,96594.66
2022-12-23T19:30:01.173Z,96591.97
2022-12-23T19:32:29.601Z,96594.94
2022-12-23T19:34:56.753Z,96594.13
2022-12-23T19:37:23.856Z,96607.84
2022-12-23T19:39:51.024Z,96614.78
2022-12-23T19:42:18.205Z,96609.16
2022-12-23T19:44:45.322Z,96615.47
2022-12-23T19:47:12.442Z,96607.00
2022-12-23T19:49:41.056Z,96612.50
2022-12-23T19:52:08.180Z,96604.16
2022-12-23T19:57:02.015Z,96603.59
2022-12-23T19:59:29.392Z,96597.34
2022-12-23T20:01:56.583Z,96613.13
2022-12-23T20:04:23.831Z,96622.50
2022-12-23T20:06:52.554Z,96626.25
2022-12-23T20:09:19.717Z,96619.50
2022-12-23T20:11:48.382Z,96626.41
2022-12-23T20:14:17.917Z,96637.38
2022-12-23T20:16:45.036Z,96617.44
2022-12-23T20:19:12.144Z,96621.66
2022-12-23T20:21:39.240Z,96621.06
2022-12-23T20:24:09.035Z,96617.72
2022-12-23T20:26:36.200Z,96622.31
2022-12-23T20:29:03.922Z,96618.91
2022-12-23T20:31:33.585Z,96617.38
2022-12-23T20:34:01.841Z,96635.44
2022-12-23T20:36:30.794Z,96630.22
2022-12-23T20:38:58.215Z,96640.59
2022-12-23T20:41:28.522Z,96641.91
2022-12-23T20:44:33.015Z,96648.97
2022-12-23T20:46:43.191Z,96665.06
2022-12-23T20:49:10.317Z,96662.41
2022-12-23T20:51:37.481Z,96671.56
2022-12-23T20:54:05.047Z,96659.25
2022-12-23T20:56:33.492Z,96665.06
2022-12-23T20:59:00.691Z,96665.53
2022-12-23T21:01:30.765Z,96648.97
2022-12-23T21:03:59.777Z,96670.94
2022-12-23T21:06:27.907Z,96665.19
2022-12-23T21:08:55.890Z,96661.69
2022-12-23T21:11:23.229Z,96661.78
2022-12-23T21:13:51.757Z,96661.78
2022-12-23T21:16:19.317Z,96665.78
2022-12-23T21:18:47.848Z,96669.56
2022-12-23T21:21:14.971Z,96677.91
2022-12-23T21:23:42.341Z,96679.06
2022-12-23T21:26:12.665Z,96683.28
2022-12-23T21:28:41.044Z,96675.44
2022-12-23T21:31:09.913Z,96679.69
2022-12-23T21:33:38.781Z,96708.88
2022-12-23T21:36:07.717Z,96715.03
2022-12-23T21:38:37.464Z,96719.63
2022-12-23T21:41:07.147Z,96724.19
2022-12-23T21:43:34.930Z,96730.16
2022-12-23T21:46:04.107Z,96727.91
2022-12-23T21:48:34.789Z,96740.03
2022-12-23T21:51:03.760Z,96761.03
2022-12-23T21:53:31.638Z,96756.75
2022-12-23T21:56:01.015Z,96759.50
2022-12-23T21:58:28.164Z,96758.78
2022-12-23T22:00:55.308Z,96749.25
2022-12-23T22:03:23.150Z,96749.81
2022-12-23T22:05:51.623Z,96778.31
2022-12-23T22:08:19.363Z,96773.22
2022-12-23T22:10:46.539Z,96771.91
2022-12-23T22:13:13.820Z,96765.22
2022-12-23T22:15:41.797Z,96753.44
2022-12-23T22:18:09.142Z,96726.53
2022-12-23T22:20:44.291Z,96774.47
2022-12-23T22:23:14.553Z,96783.59
2022-12-23T22:25:41.714Z,96780.69
2022-12-23T22:28:08.805Z,96765.13
2022-12-23T22:30:35.895Z,96781.84
2022-12-23T22:33:02.996Z,96795.31
2022-12-23T22:35:30.077Z,96800.41
2022-12-23T22:40:25.314Z,96815.09
2022-12-23T22:42:52.433Z,96826.13
2022-12-23T22:45:19.570Z,96822.81
2022-12-23T22:47:46.704Z,96840.84
2022-12-23T22:50:13.980Z,96843.53
2022-12-23T22:52:41.093Z,96842.31
2022-12-23T22:55:08.888Z,96851.16
2022-12-23T22:57:37.324Z,96850.94
2022-12-23T23:00:11.826Z,96843.38
2022-12-23T23:02:39.859Z,96853.34
2022-12-23T23:05:12.675Z,96856.03
2022-12-23T23:07:40.337Z,96860.06
2022-12-23T23:10:08.931Z,96864.34
2022-12-23T23:12:37.393Z,96871.91
2022-12-23T23:15:05.134Z,96873.78
2022-12-23T23:17:32.262Z,96866.53
2022-12-23T23:19:59.366Z,96876.22
2022-12-23T23:22:26.522Z,96868.50
2022-12-23T23:24:53.665Z,96876.00
2022-12-23T23:27:20.904Z,96878.09
2022-12-23T23:29:49.346Z,96892.59
2022-12-23T23:32:16.486Z,96891.75
2022-12-23T23:34:43.637Z,96897.38
2022-12-23T23:37:10.738Z,96897.66
2022-12-23T23:39:37.835Z,96908.91
2022-12-23T23:42:05.255Z,96920.19
2022-12-23T23:44:32.382Z,96911.06
2022-12-23T23:47:00.833Z,96904.66
2022-12-23T23:49:27.924Z,96907.13
2022-12-23T23:51:55.055Z,96918.09
2022-12-23T23:54:22.157Z,96915.69
2022-12-23T23:56:49.283Z,96927.25
2022-12-23T23:59:16.483Z,96931.53
